Latest Coastal Weather Observations for Bunbury

IDW60701

Issued at 6:35 am WST Friday 25 April 2014 (issued every 10 minutes, with the page automatically refreshed every 10 minutes)

About coastal observations | Map of coastal stations | Coastal observations for WA | Marine services | Other Formats
Station Details ID: 009965 Name: BUNBURY Lat: -33.36 Lon: 115.64 Height: 5.2 m
Data from the previous 72 hours. | See also: Recent months at Bunbury
Date/Time
WST
Temp

°C
Wind Pressure Rain
since 9am
mm
Weather Cloud Vis
km
Sea
Height
m
Swell
Dir
 
Speed
knots
Gust
knots
hPa Trend Height
m
Period
s
Dir
25/06:30am 15.1 S 3 4 1011.6 - 0.0 - - - - - - -
25/06:00am 15.0 S 2 3 1011.5 - 0.0 - - - - - - -
25/05:30am 15.1 S 3 4 1011.0 - 0.0 - - - - - - -
25/05:00am 14.8 CALM 0 3 1010.8 - 0.0 - - - - - - -
25/04:30am 15.2 S 1 2 1010.7 - 0.0 - - - - - - -
25/04:00am 15.6 S 3 4 1010.6 - 0.0 - - - - - - -
25/03:30am 15.8 S 3 4 1010.4 - 0.0 - - - - - - -
25/03:00am 15.8 S 4 5 1010.4 - 0.0 - - - - - - -
25/02:30am 15.8 S 3 5 1010.6 - 0.0 - - - - - - -
25/02:00am 16.2 SSW 3 6 1010.7 - 0.0 - - - - - - -
25/01:30am 16.5 S 4 6 1010.6 - 0.0 - - - - - - -
25/01:00am 16.5 S 4 6 1010.2 - 0.0 - - - - - - -
25/12:30am 16.7 SSW 4 5 1010.3 - 0.0 - - - - - - -
25/12:00am 16.9 SSW 3 5 1010.2 - 0.0 - - - - - - -
 
Date/Time
WST
Temp

°C
Wind Pressure Rain
since 9am
mm
Weather Cloud Vis
km
Sea
Height
m
Swell
Dir
 
Speed
knots
Gust
knots
hPa Trend Height
m
Period
s
Dir
24/11:30pm 16.9 S 4 5 1010.3 - 0.0 - - - - - - -
24/11:00pm 17.3 SSW 3 4 1010.6 - 0.0 - - - - - - -
24/10:30pm 17.5 SSW 3 4 1010.5 - 0.0 - - - - - - -
24/10:00pm 17.9 S 3 4 1010.5 - 0.0 - - - - - - -
24/09:30pm 18.1 S 3 4 1010.6 - 0.0 - - - - - - -
24/09:00pm 18.5 S 3 5 1010.6 - 0.0 - - - - - - -
24/08:30pm 18.9 S 4 6 1010.3 - 0.0 - - - - - - -
24/08:00pm 19.2 S 5 8 1010.1 - 0.0 - - - - - - -
24/07:30pm 19.6 SSW 4 6 1009.9 - 0.0 - - - - - - -
24/07:00pm 19.5 SW 3 5 1009.7 - 0.0 - - - - - - -
24/06:30pm 19.6 SSW 3 4 1009.1 - 0.0 - - - - - - -
24/06:00pm 19.6 SSW 3 5 1008.7 - 0.0 - - - - - - -
24/05:30pm 20.1 WSW 3 5 1008.7 - 0.0 - - - - - - -
24/05:00pm 20.4 WSW 5 7 1008.4 - 0.0 - - - - - - -
24/04:30pm 21.4 WSW 4 5 1008.3 - 0.0 - - - - - - -
24/04:00pm 21.6 WSW 4 6 1008.4 - 0.0 - - - - - - -
24/03:30pm 23.0 WSW 5 7 1008.4 - 0.0 - - - - - - -
24/03:00pm 24.1 S 5 7 1008.1 - 0.0 - - - - - - -
24/02:30pm 23.9 S 5 8 1008.1 - 0.0 - - - - - - -
24/02:00pm 24.3 S 5 9 1008.1 - 0.0 - - - - - - -
24/01:30pm 24.1 S 5 6 1008.3 - 0.0 - - - - - - -
24/01:00pm 23.2 S 4 6 1008.8 - 0.0 - - - - - - -
24/12:30pm 23.8 SSE 4 6 1009.4 - 0.0 - - - - - - -
24/12:00pm 22.8 SSE 4 7 1009.8 - 0.0 - - - - - - -
24/11:30am 22.6 S 4 7 1010.3 - 0.0 - - - - - - -
24/11:00am 22.4 ESE 4 6 1010.5 - 0.0 - - - - - - -
24/10:30am 20.6 ESE 6 8 1011.0 - 0.0 - - - - - - -
24/10:00am 19.9 ESE 6 8 1011.4 - 0.0 - - - - - - -
24/09:30am 18.9 SE 6 8 1011.9 - 0.0 - - - - - - -
24/09:00am 17.4 SE 6 8 1012.4 - 0.0 - - - - - - -
24/08:30am 15.9 SE 5 6 1012.4 - 0.0 - - - - - - -
24/08:00am 14.8 SE 3 5 1012.5 - 0.0 - - - - - - -
24/07:30am 14.1 SE 4 6 1012.6 - 0.0 - - - - - - -
24/07:00am 13.4 SE 4 5 1012.7 - 0.0 - - - - - - -
24/06:30am 13.4 SE 4 5 1012.6 - 0.0 - - - - - - -
24/06:00am 15.0 E 7 10 1012.6 - 0.0 - - - - - - -
24/05:30am 14.5 E 5 8 1012.9 - 0.0 - - - - - - -
24/05:00am 14.8 E 6 8 1012.9 - 0.0 - - - - - - -
24/04:30am 15.6 E 7 11 1013.0 - 0.0 - - - - - - -
24/04:00am 16.0 E 8 14 1013.0 - 0.0 - - - - - - -
24/03:30am 15.9 E 7 11 1013.2 - 0.0 - - - - - - -
24/03:00am 15.9 E 6 8 1013.8 - 0.0 - - - - - - -
24/02:30am 15.7 E 6 10 1013.7 - 0.0 - - - - - - -
24/02:00am 14.9 ESE 4 6 1014.1 - 0.0 - - - - - - -
24/01:30am 14.5 ESE 4 5 1014.3 - 0.0 - - - - - - -
24/01:00am 15.2 ESE 6 8 1014.5 - 0.0 - - - - - - -
24/12:30am 16.1 ESE 9 11 1014.7 - 0.0 - - - - - - -
24/12:00am 16.1 SE 7 12 1014.7 - 0.0 - - - - - - -
 
Date/Time
WST
Temp

°C
Wind Pressure Rain
since 9am
mm
Weather Cloud Vis
km
Sea
Height
m
Swell
Dir
 
Speed
knots
Gust
knots
hPa Trend Height
m
Period
s
Dir
23/11:30pm 15.4 SE 5 8 1014.9 - 0.0 - - - - - - -
23/11:00pm 15.6 SE 5 7 1015.2 - 0.0 - - - - - - -
23/10:30pm 14.9 SE 4 6 1015.5 - 0.0 - - - - - - -
23/10:00pm 15.6 SSE 5 7 1015.6 - 0.0 - - - - - - -
23/09:30pm 15.8 SSE 4 5 1015.8 - 0.0 - - - - - - -
23/09:00pm 16.0 SSE 5 7 1015.6 - 0.0 - - - - - - -
23/08:30pm 16.9 SSE 6 9 1015.7 - 0.0 - - - - - - -
23/08:00pm 17.5 SSE 6 8 1015.6 - 0.0 - - - - - - -
23/07:30pm 17.9 SSE 5 7 1015.9 - 0.0 - - - - - - -
23/07:00pm 18.6 SSE 5 7 1015.9 - 0.0 - - - - - - -
23/06:30pm 18.5 SSE 5 6 1015.8 - 0.0 - - - - - - -
23/06:00pm 19.1 SE 4 6 1015.3 - 0.0 - - - - - - -
23/05:30pm 21.3 SE 6 8 1015.4 - 0.0 - - - - - - -
23/05:00pm 22.6 SE 6 10 1015.1 - 0.0 - - - - - - -
23/04:30pm 23.4 SE 6 9 1015.3 - 0.0 - - - - - - -
23/04:00pm 24.2 E 7 10 1015.2 - 0.0 - - - - - - -
23/03:30pm 23.2 SSE 6 10 1015.3 - 0.0 - - - - - - -
23/03:00pm 23.3 SE 6 10 1015.3 - 0.0 - - - - - - -
23/02:30pm 23.9 ESE 7 10 1015.7 - 0.0 - - - - - - -
23/02:00pm 23.6 ESE 7 12 1016.0 - 0.0 - - - - - - -
23/01:30pm 23.0 E 7 11 1016.4 - 0.0 - - - - - - -
23/01:00pm 22.0 SSE 7 11 1016.8 - 0.0 - - - - - - -
23/12:30pm 21.6 SE 6 10 1017.4 - 0.0 - - - - - - -
23/12:00pm 21.3 S 6 10 1017.7 - 0.0 - - - - - - -
23/11:30am 21.6 SE 7 10 1018.1 - 0.0 - - - - - - -
23/11:00am 20.3 SSE 7 9 1018.3 - 0.0 - - - - - - -
23/10:30am 20.0 S 6 9 1018.6 - 0.0 - - - - - - -
23/10:00am 19.7 E 2 4 1018.8 - 0.0 - - - - - - -
23/09:30am 17.6 E 2 4 1019.3 - 0.0 - - - - - - -
23/09:00am 15.8 E 2 3 1019.2 - 0.0 - - - - - - -
23/08:30am 14.2 CALM 0 1 1019.1 - 0.0 - - - - - - -
23/08:00am 11.7 ENE 2 4 1018.8 - 0.0 - - - - - - -
23/07:30am 10.1 CALM 0 0 1018.8 - 0.0 - - - - - - -
23/07:00am 9.1 E 2 2 1018.4 - 0.0 - - - - - - -
23/06:30am 8.5 E 3 4 1018.5 - 0.0 - - - - - - -
23/06:00am 8.0 CALM 0 0 1018.2 - 0.0 - - - - - - -
23/05:30am 5.9 CALM 0 0 1018.2 - 0.0 - - - - - - -
23/05:00am 6.1 CALM 0 0 1018.1 - 0.0 - - - - - - -
23/04:30am 6.1 CALM 0 2 1018.2 - 0.0 - - - - - - -
23/04:00am 7.1 CALM 0 0 1018.0 - 0.0 - - - - - - -
23/03:30am 6.0 SSW 2 2 1018.2 - 0.0 - - - - - - -
23/03:00am 6.6 CALM 0 0 1018.2 - 0.0 - - - - - - -
23/02:30am 7.7 CALM 0 0 1018.4 - 0.0 - - - - - - -
23/02:00am 6.6 CALM 0 0 1018.5 - 0.0 - - - - - - -
23/01:30am 7.6 CALM 0 0 1018.9 - 0.0 - - - - - - -
23/01:00am 7.3 CALM 0 0 1018.5 - 0.0 - - - - - - -
23/12:30am 8.1 CALM 0 0 1018.6 - 0.0 - - - - - - -
23/12:00am 9.3 CALM 0 1 1018.5 - 0.0 - - - - - - -
 
Date/Time
WST
Temp

°C
Wind Pressure Rain
since 9am
mm
Weather Cloud Vis
km
Sea
Height
m
Swell
Dir
 
Speed
knots
Gust
knots
hPa Trend Height
m
Period
s
Dir
22/11:30pm 9.8 ESE 1 3 1019.0 - 0.0 - - - - - - -
22/11:00pm 9.6 SE 2 3 1018.9 - 0.0 - - - - - - -
22/10:30pm 10.1 CALM 0 1 1019.6 - 0.0 - - - - - - -
22/10:00pm 12.5 CALM 0 1 1019.3 - 0.0 - - - - - - -
22/09:30pm 13.8 S 3 5 1019.3 - 0.0 - - - - - - -
22/09:00pm 14.0 S 3 4 1019.3 - 0.0 - - - - - - -
22/08:30pm 14.1 S 3 5 1019.8 - 0.0 - - - - - - -
22/08:00pm 15.2 S 4 5 1019.5 - 0.0 - - - - - - -
22/07:30pm 16.6 SSW 5 8 1019.4 - 0.0 - - - - - - -
22/07:00pm 17.5 SSW 9 13 1019.0 - 0.0 - - - - - - -
22/06:30pm 17.9 SW 5 8 1018.6 - 0.0 - - - - - - -
22/06:00pm 17.8 WSW 4 8 1018.0 - 0.0 - - - - - - -
22/05:30pm 18.9 WSW 6 8 1018.2 - 0.0 - - - - - - -
22/05:00pm 19.9 WSW 6 9 1018.2 - 0.0 - - - - - - -
22/04:30pm 20.1 WSW 7 10 1018.1 - 0.0 - - - - - - -
22/04:00pm 20.9 WSW 7 11 1018.3 - 0.0 - - - - - - -
22/03:30pm 20.5 WSW 8 12 1018.4 - 0.0 - - - - - - -
22/03:00pm 20.9 W 9 13 1018.6 - 0.0 - - - - - - -
22/02:30pm 21.5 WSW 6 9 1018.9 - 0.0 - - - - - - -
22/02:00pm 20.7 W 7 9 1018.9 - 0.0 - - - - - - -
22/01:30pm 21.4 W 5 9 1019.4 - 0.0 - - - - - - -
22/01:00pm 21.7 W 7 10 1019.7 - 0.0 - - - - - - -
22/12:30pm 21.9 W 7 9 1020.2 - 0.0 - - - - - - -
22/12:00pm 21.5 W 5 8 1020.5 - 0.0 - - - - - - -
22/11:30am 21.2 W 3 5 1021.0 - 0.0 - - - - - - -
22/11:00am 20.1 SSW 2 4 1021.3 - 0.0 - - - - - - -
22/10:30am 19.5 W 2 3 1021.8 - 0.0 - - - - - - -
22/10:00am 18.5 SE 2 4 1022.0 - 0.0 - - - - - - -
22/09:30am 17.2 ENE 3 5 1022.2 - 0.0 - - - - - - -
22/09:00am 16.0 E 4 5 1022.1 - 0.0 - - - - - - -
22/08:30am 13.8 SE 3 4 1022.0 - 0.0 - - - - - - -
22/08:00am 12.2 E 3 5 1021.8 - 0.0 - - - - - - -
22/07:30am 10.0 ESE 4 5 1021.7 - 0.0 - - - - - - -
22/07:00am 7.9 ESE 3 4 1021.4 - 0.0 - - - - - - -

Other Formats:

Comma delimited format used in spreadsheet applications
http://www.bom.gov.au/fwo/IDW60701/IDW60701.94604.axf

JavaScript Object Notation format (JSON) in row-major order
http://www.bom.gov.au/fwo/IDW60701/IDW60701.94604.json